Flight Track Log - Related Links

Times and Time Zones

All times are in EDT time to prevent confusion due to time zone crossing. See the EJA396 flight status page for this flight to view local times or setup timezone preferences in your user account.

Time Position Orientation Groundspeed Altitude Reporting Facility
EDT Latitude Longitude Course Direction KTS MPH feet Rate Location/Type
Fri 02:36:18 PM 38.3919 -82.6161 110° East 237 273 3,200  Level Indianapolis Center
Fri 02:37:20 PM 38.4542 -82.6272 352° North 227 261 6,000 1,839 Climbing Indianapolis Center
Fri 02:38:22 PM 38.5106 -82.5786 34° Northeast 281 323 7,000 1,161 Climbing Indianapolis Center
Fri 02:39:24 PM 38.4894 -82.4711 104° East 295 339 8,400 1,403 Climbing Indianapolis Center
Fri 02:40:26 PM 38.4686 -82.3647 104° East 304 350 9,900 1,210 Climbing Indianapolis Center
Fri 02:41:00 PM 38.2560 -82.0664 110° East  Level Estimated
Fri 02:41:28 PM 38.4456 -82.2472 104° East 328 377 10,900  Level Indianapolis Center
Fri 02:42:31 PM 38.4214 -82.1272 104° East 347 399 11,000 48 Climbing Indianapolis Center
Fri 02:43:33 PM 38.3922 -81.9797 104° East 358 412 11,000  Level Indianapolis Center
Fri 02:44:35 PM 38.3675 -81.8578 104° East 359 413 11,000  Level Indianapolis Center
Fri 02:45:37 PM 38.3400 -81.7394 106° East 353 406 11,000  Level Indianapolis Center
Fri 02:46:39 PM 38.3000 -81.6261 114° Southeast 352 405 11,000  Level Indianapolis Center
Fri 02:47:41 PM 38.2586 -81.5128 115° Southeast 355 409 11,000  Level Indianapolis Center
Fri 02:48:43 PM 38.2111 -81.3758 114° Southeast 355 409 11,000  Level Indianapolis Center
Fri 02:49:45 PM 38.1700 -81.2628 115° Southeast 355 409 11,000  Level Indianapolis Center
Fri 02:50:47 PM 38.1292 -81.1489 114° Southeast 356 410 11,000  Level Indianapolis Center
Fri 02:51:49 PM 38.0889 -81.0356 114° Southeast 354 407 11,000 -48 Level Indianapolis Center
Fri 02:52:51 PM 38.0483 -80.9228 115° Southeast 353 406 10,900 -726 Descending Indianapolis Center
Fri 02:53:53 PM 38.0128 -80.8258 115° Southeast 303 349 9,500 -1,500 Descending Indianapolis Center
Fri 02:54:55 PM 37.9722 -80.7144 115° Southeast 291 335 7,800 -1,597 Descending Indianapolis Center
Fri 02:55:57 PM 37.9425 -80.6278 113° Southeast 272 313 6,200 -828 Descending Indianapolis Center
Fri 02:56:51 PM 37.9158 -80.5669 119° Southeast 251 289 6,200 -158 Level Washington Center
Fri 02:57:51 PM 37.8761 -80.5169 135° Southeast 203 234 5,900 -1,041 Descending Washington Center
Fri 02:58:52 PM 37.8272 -80.4847 152° Southeast 208 239 4,100 -1,082 Descending Washington Center
Fri 02:59:53 PM 37.7836 -80.4294 135° Southeast 208 239 3,700 -393 Descending Washington Center

Login

Don't have an account? Register now (free) for customized features, flight alerts, and more!